sensor_id;sensor_type;location;lat;lon;timestamp;temperature;humidity
23100;DHT22;53791;50.696;4.396;2022-12-18T00:01:26;-4.00;99.90
23100;DHT22;53791;50.696;4.396;2022-12-18T00:03:55;-4.10;99.90
23100;DHT22;53791;50.696;4.396;2022-12-18T00:06:24;-4.00;99.90
23100;DHT22;53791;50.696;4.396;2022-12-18T00:08:52;-4.00;99.90
23100;DHT22;53791;50.696;4.396;2022-12-18T00:11:22;-4.00;99.90
23100;DHT22;53791;50.696;4.396;2022-12-18T00:13:50;-4.00;99.90
23100;DHT22;53791;50.696;4.396;2022-12-18T00:16:21;-4.00;99.90
23100;DHT22;53791;50.696;4.396;2022-12-18T00:18:50;-4.10;99.90
23100;DHT22;53791;50.696;4.396;2022-12-18T00:21:19;-4.20;99.90
23100;DHT22;53791;50.696;4.396;2022-12-18T00:23:47;-4.10;99.90
23100;DHT22;53791;50.696;4.396;2022-12-18T00:26:19;-4.10;99.90
23100;DHT22;53791;50.696;4.396;2022-12-18T00:28:49;-4.20;99.90
23100;DHT22;53791;50.696;4.396;2022-12-18T00:31:19;-4.20;99.90
23100;DHT22;53791;50.696;4.396;2022-12-18T00:33:47;-4.20;99.90
23100;DHT22;53791;50.696;4.396;2022-12-18T00:36:19;-4.20;99.90
23100;DHT22;53791;50.696;4.396;2022-12-18T00:38:48;-4.30;99.90
23100;DHT22;53791;50.696;4.396;2022-12-18T00:41:16;-4.30;99.90
23100;DHT22;53791;50.696;4.396;2022-12-18T00:43:46;-4.40;99.90
23100;DHT22;53791;50.696;4.396;2022-12-18T00:46:13;-4.40;99.90
23100;DHT22;53791;50.696;4.396;2022-12-18T00:48:41;-4.40;99.90
23100;DHT22;53791;50.696;4.396;2022-12-18T00:51:08;-4.50;99.90
23100;DHT22;53791;50.696;4.396;2022-12-18T00:53:36;-4.40;99.90
23100;DHT22;53791;50.696;4.396;2022-12-18T00:56:03;-4.40;99.90
23100;DHT22;53791;50.696;4.396;2022-12-18T00:58:31;-4.40;99.90
23100;DHT22;53791;50.696;4.396;2022-12-18T01:00:58;-4.40;99.90
23100;DHT22;53791;50.696;4.396;2022-12-18T01:03:26;-4.50;99.90
23100;DHT22;53791;50.696;4.396;2022-12-18T01:05:53;-4.50;99.90
23100;DHT22;53791;50.696;4.396;2022-12-18T01:08:21;-4.50;99.90
23100;DHT22;53791;50.696;4.396;2022-12-18T01:10:49;-4.50;99.90
23100;DHT22;53791;50.696;4.396;2022-12-18T01:13:16;-4.50;99.90
23100;DHT22;53791;50.696;4.396;2022-12-18T01:15:50;-4.40;99.90
23100;DHT22;53791;50.696;4.396;2022-12-18T01:18:18;-4.40;99.90
23100;DHT22;53791;50.696;4.396;2022-12-18T01:20:45;-4.40;99.90
23100;DHT22;53791;50.696;4.396;2022-12-18T01:23:13;-4.40;99.90
23100;DHT22;53791;50.696;4.396;2022-12-18T01:25:40;-4.40;99.90
23100;DHT22;53791;50.696;4.396;2022-12-18T01:28:08;-4.50;99.90
23100;DHT22;53791;50.696;4.396;2022-12-18T01:30:35;-4.60;99.90
23100;DHT22;53791;50.696;4.396;2022-12-18T01:33:04;-4.70;99.90
23100;DHT22;53791;50.696;4.396;2022-12-18T01:35:32;-4.70;99.90
23100;DHT22;53791;50.696;4.396;2022-12-18T01:38:00;-4.70;99.90
23100;DHT22;53791;50.696;4.396;2022-12-18T01:40:27;-4.60;99.90
23100;DHT22;53791;50.696;4.396;2022-12-18T01:42:55;-4.50;99.90
23100;DHT22;53791;50.696;4.396;2022-12-18T01:45:27;-4.50;99.90
23100;DHT22;53791;50.696;4.396;2022-12-18T01:47:55;-4.50;99.90
23100;DHT22;53791;50.696;4.396;2022-12-18T01:50:27;-4.50;99.90
23100;DHT22;53791;50.696;4.396;2022-12-18T01:53:10;-4.50;99.90
23100;DHT22;53791;50.696;4.396;2022-12-18T01:55:40;-4.50;99.90
23100;DHT22;53791;50.696;4.396;2022-12-18T01:58:06;-4.50;99.90
23100;DHT22;53791;50.696;4.396;2022-12-18T02:00:34;-4.60;99.90
23100;DHT22;53791;50.696;4.396;2022-12-18T02:03:02;-4.60;99.90
23100;DHT22;53791;50.696;4.396;2022-12-18T02:05:42;-4.60;99.90
23100;DHT22;53791;50.696;4.396;2022-12-18T02:08:21;-4.70;99.90
23100;DHT22;53791;50.696;4.396;2022-12-18T02:10:56;-4.70;99.90
23100;DHT22;53791;50.696;4.396;2022-12-18T02:19:00;-4.60;99.90
23100;DHT22;53791;50.696;4.396;2022-12-18T02:21:57;-4.50;99.90
23100;DHT22;53791;50.696;4.396;2022-12-18T02:24:32;-4.60;99.90
23100;DHT22;53791;50.696;4.396;2022-12-18T02:26:55;-4.70;99.90
23100;DHT22;53791;50.696;4.396;2022-12-18T02:29:24;-4.70;99.90
23100;DHT22;53791;50.696;4.396;2022-12-18T02:31:57;-4.80;99.90
23100;DHT22;53791;50.696;4.396;2022-12-18T02:34:28;-4.80;99.90
23100;DHT22;53791;50.696;4.396;2022-12-18T02:36:58;-4.80;99.90
23100;DHT22;53791;50.696;4.396;2022-12-18T02:39:28;-5.00;99.90
23100;DHT22;53791;50.696;4.396;2022-12-18T02:41:58;-5.00;99.90
23100;DHT22;53791;50.696;4.396;2022-12-18T02:44:28;-4.90;99.90
23100;DHT22;53791;50.696;4.396;2022-12-18T02:46:55;-5.00;99.90
23100;DHT22;53791;50.696;4.396;2022-12-18T02:49:39;-5.20;99.90
23100;DHT22;53791;50.696;4.396;2022-12-18T02:52:23;-5.30;99.90
23100;DHT22;53791;50.696;4.396;2022-12-18T02:54:55;-5.30;99.90
23100;DHT22;53791;50.696;4.396;2022-12-18T02:57:29;-5.20;99.90
23100;DHT22;53791;50.696;4.396;2022-12-18T02:59:58;-5.10;99.90
23100;DHT22;53791;50.696;4.396;2022-12-18T03:05:24;-5.20;99.90
23100;DHT22;53791;50.696;4.396;2022-12-18T03:08:16;-5.20;99.90
23100;DHT22;53791;50.696;4.396;2022-12-18T03:10:55;-5.20;99.90
23100;DHT22;53791;50.696;4.396;2022-12-18T03:13:37;-5.20;99.90
23100;DHT22;53791;50.696;4.396;2022-12-18T03:16:07;-5.20;99.90
23100;DHT22;53791;50.696;4.396;2022-12-18T03:18:44;-5.20;99.90
23100;DHT22;53791;50.696;4.396;2022-12-18T03:21:12;-5.20;99.90
23100;DHT22;53791;50.696;4.396;2022-12-18T03:23:45;-5.20;99.90
23100;DHT22;53791;50.696;4.396;2022-12-18T03:26:19;-5.10;99.90
23100;DHT22;53791;50.696;4.396;2022-12-18T03:28:53;-5.30;99.90
23100;DHT22;53791;50.696;4.396;2022-12-18T03:31:18;-5.30;99.90
23100;DHT22;53791;50.696;4.396;2022-12-18T03:33:57;-5.40;99.90
23100;DHT22;53791;50.696;4.396;2022-12-18T03:36:20;-5.30;99.90
23100;DHT22;53791;50.696;4.396;2022-12-18T03:38:47;-5.30;99.90
23100;DHT22;53791;50.696;4.396;2022-12-18T03:41:45;-5.20;99.90
23100;DHT22;53791;50.696;4.396;2022-12-18T03:44:15;-5.20;99.90
23100;DHT22;53791;50.696;4.396;2022-12-18T03:47:16;-5.20;99.90
23100;DHT22;53791;50.696;4.396;2022-12-18T03:50:00;-5.20;99.90
23100;DHT22;53791;50.696;4.396;2022-12-18T03:52:30;-5.30;99.90
23100;DHT22;53791;50.696;4.396;2022-12-18T03:54:58;-5.30;99.90
23100;DHT22;53791;50.696;4.396;2022-12-18T03:57:28;-5.30;99.90
23100;DHT22;53791;50.696;4.396;2022-12-18T04:00:04;-5.40;99.90
23100;DHT22;53791;50.696;4.396;2022-12-18T04:02:28;-5.50;99.90
23100;DHT22;53791;50.696;4.396;2022-12-18T04:04:59;-5.50;99.90
23100;DHT22;53791;50.696;4.396;2022-12-18T04:07:28;-5.50;99.90
23100;DHT22;53791;50.696;4.396;2022-12-18T04:09:56;-5.50;99.90
23100;DHT22;53791;50.696;4.396;2022-12-18T04:12:26;-5.60;99.90
23100;DHT22;53791;50.696;4.396;2022-12-18T04:14:55;-5.60;99.90
23100;DHT22;53791;50.696;4.396;2022-12-18T04:17:23;-5.50;99.90
23100;DHT22;53791;50.696;4.396;2022-12-18T04:19:51;-5.50;99.90
23100;DHT22;53791;50.696;4.396;2022-12-18T04:22:18;-5.50;99.90
23100;DHT22;53791;50.696;4.396;2022-12-18T04:24:46;-5.50;99.90
23100;DHT22;53791;50.696;4.396;2022-12-18T04:27:14;-5.50;99.90
23100;DHT22;53791;50.696;4.396;2022-12-18T04:29:41;-5.60;99.90
23100;DHT22;53791;50.696;4.396;2022-12-18T04:32:09;-5.60;99.90
23100;DHT22;53791;50.696;4.396;2022-12-18T04:34:36;-5.50;99.90
23100;DHT22;53791;50.696;4.396;2022-12-18T04:37:04;-5.60;99.90
23100;DHT22;53791;50.696;4.396;2022-12-18T04:39:31;-5.60;99.90
23100;DHT22;53791;50.696;4.396;2022-12-18T04:41:59;-5.60;99.90
23100;DHT22;53791;50.696;4.396;2022-12-18T04:44:26;-5.60;99.90
23100;DHT22;53791;50.696;4.396;2022-12-18T04:46:54;-5.70;99.90
23100;DHT22;53791;50.696;4.396;2022-12-18T04:49:22;-5.70;99.90
23100;DHT22;53791;50.696;4.396;2022-12-18T04:51:49;-5.70;99.90
23100;DHT22;53791;50.696;4.396;2022-12-18T04:54:18;-5.70;99.90
23100;DHT22;53791;50.696;4.396;2022-12-18T04:56:45;-5.70;99.90
23100;DHT22;53791;50.696;4.396;2022-12-18T04:59:13;-5.70;99.90
23100;DHT22;53791;50.696;4.396;2022-12-18T05:01:40;-5.70;99.90
23100;DHT22;53791;50.696;4.396;2022-12-18T05:04:08;-5.60;99.90
23100;DHT22;53791;50.696;4.396;2022-12-18T05:06:35;-5.70;99.90
23100;DHT22;53791;50.696;4.396;2022-12-18T05:09:03;-5.70;99.90
23100;DHT22;53791;50.696;4.396;2022-12-18T05:11:30;-5.70;99.90
23100;DHT22;53791;50.696;4.396;2022-12-18T05:13:58;-5.70;99.90
23100;DHT22;53791;50.696;4.396;2022-12-18T05:16:25;-5.60;99.90
23100;DHT22;53791;50.696;4.396;2022-12-18T05:18:52;-5.80;99.90
23100;DHT22;53791;50.696;4.396;2022-12-18T05:21:20;-5.90;99.90
23100;DHT22;53791;50.696;4.396;2022-12-18T05:23:47;-5.90;99.90
23100;DHT22;53791;50.696;4.396;2022-12-18T05:26:17;-6.00;99.90
23100;DHT22;53791;50.696;4.396;2022-12-18T05:28:45;-5.90;99.90
23100;DHT22;53791;50.696;4.396;2022-12-18T05:31:13;-6.00;99.90
23100;DHT22;53791;50.696;4.396;2022-12-18T05:33:41;-6.00;99.90
23100;DHT22;53791;50.696;4.396;2022-12-18T05:36:09;-6.00;99.90
23100;DHT22;53791;50.696;4.396;2022-12-18T05:38:39;-6.00;99.90
23100;DHT22;53791;50.696;4.396;2022-12-18T05:41:07;-6.00;99.90
23100;DHT22;53791;50.696;4.396;2022-12-18T05:43:36;-6.00;99.90
23100;DHT22;53791;50.696;4.396;2022-12-18T05:46:07;-6.00;99.90
23100;DHT22;53791;50.696;4.396;2022-12-18T05:48:34;-6.00;99.90
23100;DHT22;53791;50.696;4.396;2022-12-18T05:51:08;-6.00;99.90
23100;DHT22;53791;50.696;4.396;2022-12-18T05:53:36;-6.00;99.90
23100;DHT22;53791;50.696;4.396;2022-12-18T05:56:05;-6.10;99.90
23100;DHT22;53791;50.696;4.396;2022-12-18T05:58:33;-6.00;99.90
23100;DHT22;53791;50.696;4.396;2022-12-18T06:01:09;-5.90;99.90
23100;DHT22;53791;50.696;4.396;2022-12-18T06:03:37;-5.80;99.90
23100;DHT22;53791;50.696;4.396;2022-12-18T06:06:11;-5.70;99.90
23100;DHT22;53791;50.696;4.396;2022-12-18T06:08:33;-5.70;99.90
23100;DHT22;53791;50.696;4.396;2022-12-18T06:11:01;-5.80;99.90
23100;DHT22;53791;50.696;4.396;2022-12-18T06:13:28;-5.90;99.90
23100;DHT22;53791;50.696;4.396;2022-12-18T06:15:56;-6.00;99.90
23100;DHT22;53791;50.696;4.396;2022-12-18T06:18:23;-6.10;99.90
23100;DHT22;53791;50.696;4.396;2022-12-18T06:20:57;-6.20;99.90
23100;DHT22;53791;50.696;4.396;2022-12-18T06:23:26;-6.20;99.90
23100;DHT22;53791;50.696;4.396;2022-12-18T06:25:53;-6.10;99.90
23100;DHT22;53791;50.696;4.396;2022-12-18T06:28:21;-6.20;99.90
23100;DHT22;53791;50.696;4.396;2022-12-18T06:30:49;-6.20;99.90
23100;DHT22;53791;50.696;4.396;2022-12-18T06:33:17;-6.10;99.90
23100;DHT22;53791;50.696;4.396;2022-12-18T06:35:44;-6.10;99.90
23100;DHT22;53791;50.696;4.396;2022-12-18T06:38:12;-6.00;99.90
23100;DHT22;53791;50.696;4.396;2022-12-18T06:40:39;-6.10;99.90
23100;DHT22;53791;50.696;4.396;2022-12-18T06:43:07;-6.00;99.90
23100;DHT22;53791;50.696;4.396;2022-12-18T06:45:35;-6.00;99.90
23100;DHT22;53791;50.696;4.396;2022-12-18T06:48:02;-6.10;99.90
23100;DHT22;53791;50.696;4.396;2022-12-18T06:50:30;-6.20;99.90
23100;DHT22;53791;50.696;4.396;2022-12-18T06:52:58;-6.20;99.90
23100;DHT22;53791;50.696;4.396;2022-12-18T06:55:25;-6.10;99.90
23100;DHT22;53791;50.696;4.396;2022-12-18T06:57:53;-6.10;99.90
23100;DHT22;53791;50.696;4.396;2022-12-18T07:00:20;-5.90;99.90
23100;DHT22;53791;50.696;4.396;2022-12-18T07:02:48;-5.90;99.90
23100;DHT22;53791;50.696;4.396;2022-12-18T07:05:15;-6.00;99.90
23100;DHT22;53791;50.696;4.396;2022-12-18T07:07:43;-6.00;99.90
23100;DHT22;53791;50.696;4.396;2022-12-18T07:10:10;-6.00;99.90
23100;DHT22;53791;50.696;4.396;2022-12-18T07:12:38;-6.00;99.90
23100;DHT22;53791;50.696;4.396;2022-12-18T07:15:06;-6.00;99.90
23100;DHT22;53791;50.696;4.396;2022-12-18T07:17:34;-6.00;99.90
23100;DHT22;53791;50.696;4.396;2022-12-18T07:20:02;-6.00;99.90
23100;DHT22;53791;50.696;4.396;2022-12-18T07:22:29;-5.90;99.90
23100;DHT22;53791;50.696;4.396;2022-12-18T07:24:57;-5.80;99.90
23100;DHT22;53791;50.696;4.396;2022-12-18T07:27:25;-5.80;99.90
23100;DHT22;53791;50.696;4.396;2022-12-18T07:29:52;-5.80;99.90
23100;DHT22;53791;50.696;4.396;2022-12-18T07:32:20;-5.80;99.90
23100;DHT22;53791;50.696;4.396;2022-12-18T07:34:47;-5.70;99.90
23100;DHT22;53791;50.696;4.396;2022-12-18T07:37:15;-5.70;99.90
23100;DHT22;53791;50.696;4.396;2022-12-18T07:39:42;-5.70;99.90
23100;DHT22;53791;50.696;4.396;2022-12-18T07:42:10;-5.70;99.90
23100;DHT22;53791;50.696;4.396;2022-12-18T07:44:55;-5.70;99.90
23100;DHT22;53791;50.696;4.396;2022-12-18T07:47:22;-5.70;99.90
23100;DHT22;53791;50.696;4.396;2022-12-18T07:49:50;-5.60;99.90
23100;DHT22;53791;50.696;4.396;2022-12-18T07:52:18;-5.70;99.90
23100;DHT22;53791;50.696;4.396;2022-12-18T07:54:45;-5.70;99.90
23100;DHT22;53791;50.696;4.396;2022-12-18T07:57:15;-5.70;99.90
23100;DHT22;53791;50.696;4.396;2022-12-18T07:59:43;-5.60;99.90
23100;DHT22;53791;50.696;4.396;2022-12-18T08:02:10;-5.70;99.90
23100;DHT22;53791;50.696;4.396;2022-12-18T08:04:38;-5.60;99.90
23100;DHT22;53791;50.696;4.396;2022-12-18T08:07:05;-5.50;99.90
23100;DHT22;53791;50.696;4.396;2022-12-18T08:09:33;-5.40;99.90
23100;DHT22;53791;50.696;4.396;2022-12-18T08:12:00;-5.30;99.90
23100;DHT22;53791;50.696;4.396;2022-12-18T08:14:28;-5.30;99.90
23100;DHT22;53791;50.696;4.396;2022-12-18T08:16:55;-5.30;99.90
23100;DHT22;53791;50.696;4.396;2022-12-18T08:19:23;-5.30;99.90
23100;DHT22;53791;50.696;4.396;2022-12-18T08:21:50;-5.30;99.90
23100;DHT22;53791;50.696;4.396;2022-12-18T08:24:18;-5.30;99.90
23100;DHT22;53791;50.696;4.396;2022-12-18T08:26:45;-5.20;99.90
23100;DHT22;53791;50.696;4.396;2022-12-18T08:29:13;-5.20;99.90
23100;DHT22;53791;50.696;4.396;2022-12-18T08:31:40;-5.20;99.90
23100;DHT22;53791;50.696;4.396;2022-12-18T08:34:08;-5.10;99.90
23100;DHT22;53791;50.696;4.396;2022-12-18T08:36:36;-5.00;99.90
23100;DHT22;53791;50.696;4.396;2022-12-18T08:39:03;-4.90;99.90
23100;DHT22;53791;50.696;4.396;2022-12-18T08:41:31;-4.70;99.90
23100;DHT22;53791;50.696;4.396;2022-12-18T08:43:58;-4.50;99.90
23100;DHT22;53791;50.696;4.396;2022-12-18T08:46:44;-4.30;99.90
23100;DHT22;53791;50.696;4.396;2022-12-18T08:49:12;-4.10;99.90
23100;DHT22;53791;50.696;4.396;2022-12-18T08:51:40;-4.00;99.90
23100;DHT22;53791;50.696;4.396;2022-12-18T08:54:08;-3.90;99.90
23100;DHT22;53791;50.696;4.396;2022-12-18T08:56:37;-3.70;99.90
23100;DHT22;53791;50.696;4.396;2022-12-18T08:59:04;-3.60;99.90
23100;DHT22;53791;50.696;4.396;2022-12-18T09:01:32;-3.40;99.90
23100;DHT22;53791;50.696;4.396;2022-12-18T09:03:59;-3.30;99.90
23100;DHT22;53791;50.696;4.396;2022-12-18T09:06:27;-3.20;99.90
23100;DHT22;53791;50.696;4.396;2022-12-18T09:08:54;-3.10;99.90
23100;DHT22;53791;50.696;4.396;2022-12-18T09:11:24;-3.00;99.90
23100;DHT22;53791;50.696;4.396;2022-12-18T09:13:52;-2.90;99.90
23100;DHT22;53791;50.696;4.396;2022-12-18T09:16:21;-2.70;99.90
23100;DHT22;53791;50.696;4.396;2022-12-18T09:18:49;-2.60;99.90
23100;DHT22;53791;50.696;4.396;2022-12-18T09:21:19;-2.50;99.90
23100;DHT22;53791;50.696;4.396;2022-12-18T09:23:54;-2.40;99.90
23100;DHT22;53791;50.696;4.396;2022-12-18T09:26:23;-2.30;99.90
23100;DHT22;53791;50.696;4.396;2022-12-18T09:28:51;-2.20;99.90
23100;DHT22;53791;50.696;4.396;2022-12-18T09:31:21;-2.10;99.90
23100;DHT22;53791;50.696;4.396;2022-12-18T09:33:48;-2.00;99.90
23100;DHT22;53791;50.696;4.396;2022-12-18T09:36:17;-1.90;99.90
23100;DHT22;53791;50.696;4.396;2022-12-18T09:38:45;-1.80;99.90
23100;DHT22;53791;50.696;4.396;2022-12-18T09:41:20;-1.80;99.90
23100;DHT22;53791;50.696;4.396;2022-12-18T09:43:57;-1.80;99.90
23100;DHT22;53791;50.696;4.396;2022-12-18T09:46:37;-1.80;99.90
23100;DHT22;53791;50.696;4.396;2022-12-18T09:49:14;-1.70;99.90
23100;DHT22;53791;50.696;4.396;2022-12-18T09:51:40;-1.60;99.90
23100;DHT22;53791;50.696;4.396;2022-12-18T09:54:15;-1.60;99.90
23100;DHT22;53791;50.696;4.396;2022-12-18T09:56:41;-1.50;99.90
23100;DHT22;53791;50.696;4.396;2022-12-18T10:01:48;-1.40;99.90
23100;DHT22;53791;50.696;4.396;2022-12-18T10:04:16;-1.40;99.90
23100;DHT22;53791;50.696;4.396;2022-12-18T10:06:50;-1.40;99.90
23100;DHT22;53791;50.696;4.396;2022-12-18T10:09:20;-1.40;99.90
23100;DHT22;53791;50.696;4.396;2022-12-18T10:14:53;-1.30;99.90
23100;DHT22;53791;50.696;4.396;2022-12-18T10:17:50;-1.20;99.90
23100;DHT22;53791;50.696;4.396;2022-12-18T10:20:35;-1.20;99.90
23100;DHT22;53791;50.696;4.396;2022-12-18T10:25:57;-1.10;99.90
23100;DHT22;53791;50.696;4.396;2022-12-18T10:28:25;-1.10;99.90
23100;DHT22;53791;50.696;4.396;2022-12-18T10:30:53;-1.00;99.90
23100;DHT22;53791;50.696;4.396;2022-12-18T10:33:23;-1.00;99.90
23100;DHT22;53791;50.696;4.396;2022-12-18T10:35:51;-0.90;99.90
23100;DHT22;53791;50.696;4.396;2022-12-18T10:38:27;-0.90;99.90
23100;DHT22;53791;50.696;4.396;2022-12-18T10:41:08;-0.80;99.90
23100;DHT22;53791;50.696;4.396;2022-12-18T10:43:34;-0.80;99.90
23100;DHT22;53791;50.696;4.396;2022-12-18T10:46:13;-0.70;99.90
23100;DHT22;53791;50.696;4.396;2022-12-18T10:48:40;-0.50;99.90
23100;DHT22;53791;50.696;4.396;2022-12-18T10:51:08;-0.40;99.90
23100;DHT22;53791;50.696;4.396;2022-12-18T10:53:37;-0.30;99.90
23100;DHT22;53791;50.696;4.396;2022-12-18T10:56:05;-0.20;99.90
23100;DHT22;53791;50.696;4.396;2022-12-18T10:58:38;-0.20;99.90
23100;DHT22;53791;50.696;4.396;2022-12-18T11:01:17;0.00;99.90
23100;DHT22;53791;50.696;4.396;2022-12-18T11:03:39;0.10;99.90
23100;DHT22;53791;50.696;4.396;2022-12-18T11:06:13;0.20;99.90
23100;DHT22;53791;50.696;4.396;2022-12-18T11:08:39;0.30;99.90
23100;DHT22;53791;50.696;4.396;2022-12-18T11:11:20;0.40;99.90
23100;DHT22;53791;50.696;4.396;2022-12-18T11:16:22;0.40;99.90
23100;DHT22;53791;50.696;4.396;2022-12-18T11:18:50;0.40;99.90
23100;DHT22;53791;50.696;4.396;2022-12-18T11:21:17;0.60;99.90
23100;DHT22;53791;50.696;4.396;2022-12-18T11:23:50;0.60;99.90
23100;DHT22;53791;50.696;4.396;2022-12-18T11:26:18;0.70;99.90
23100;DHT22;53791;50.696;4.396;2022-12-18T11:28:51;0.70;99.90
23100;DHT22;53791;50.696;4.396;2022-12-18T11:31:21;0.70;99.90
23100;DHT22;53791;50.696;4.396;2022-12-18T11:34:17;0.70;99.90
23100;DHT22;53791;50.696;4.396;2022-12-18T11:36:43;0.80;99.90
23100;DHT22;53791;50.696;4.396;2022-12-18T11:39:22;0.80;99.90
23100;DHT22;53791;50.696;4.396;2022-12-18T11:42:05;0.90;99.90
23100;DHT22;53791;50.696;4.396;2022-12-18T11:50:02;0.90;99.90
23100;DHT22;53791;50.696;4.396;2022-12-18T11:52:40;0.90;99.90
23100;DHT22;53791;50.696;4.396;2022-12-18T11:55:27;0.90;99.90
23100;DHT22;53791;50.696;4.396;2022-12-18T11:57:54;0.90;99.90
23100;DHT22;53791;50.696;4.396;2022-12-18T12:00:23;0.90;99.90
23100;DHT22;53791;50.696;4.396;2022-12-18T12:25:13;1.00;99.90
23100;DHT22;53791;50.696;4.396;2022-12-18T12:27:47;1.00;99.90
23100;DHT22;53791;50.696;4.396;2022-12-18T12:33:15;0.90;99.90
23100;DHT22;53791;50.696;4.396;2022-12-18T12:35:52;0.90;99.90
23100;DHT22;53791;50.696;4.396;2022-12-18T12:41:05;0.70;99.90
23100;DHT22;53791;50.696;4.396;2022-12-18T12:43:43;0.70;99.90
23100;DHT22;53791;50.696;4.396;2022-12-18T12:46:16;0.70;99.90
23100;DHT22;53791;50.696;4.396;2022-12-18T12:48:58;0.70;99.90
23100;DHT22;53791;50.696;4.396;2022-12-18T12:51:44;0.80;99.90
23100;DHT22;53791;50.696;4.396;2022-12-18T12:54:23;0.80;99.90
23100;DHT22;53791;50.696;4.396;2022-12-18T12:59:37;1.00;99.90
23100;DHT22;53791;50.696;4.396;2022-12-18T13:04:44;0.90;99.90
23100;DHT22;53791;50.696;4.396;2022-12-18T13:07:35;0.90;99.90
23100;DHT22;53791;50.696;4.396;2022-12-18T13:10:23;1.00;99.90
23100;DHT22;53791;50.696;4.396;2022-12-18T13:12:58;1.00;99.90
23100;DHT22;53791;50.696;4.396;2022-12-18T13:15:37;1.10;99.90
23100;DHT22;53791;50.696;4.396;2022-12-18T13:20:53;1.10;99.90
23100;DHT22;53791;50.696;4.396;2022-12-18T13:23:27;1.10;99.90
23100;DHT22;53791;50.696;4.396;2022-12-18T13:25:57;1.20;99.90
23100;DHT22;53791;50.696;4.396;2022-12-18T13:34:19;1.20;99.90
23100;DHT22;53791;50.696;4.396;2022-12-18T13:36:47;1.20;99.90
23100;DHT22;53791;50.696;4.396;2022-12-18T13:41:50;1.10;99.90
23100;DHT22;53791;50.696;4.396;2022-12-18T13:44:31;1.10;99.90
23100;DHT22;53791;50.696;4.396;2022-12-18T13:46:56;1.10;99.90
23100;DHT22;53791;50.696;4.396;2022-12-18T13:49:41;0.90;99.90
23100;DHT22;53791;50.696;4.396;2022-12-18T13:52:21;0.90;99.90
23100;DHT22;53791;50.696;4.396;2022-12-18T13:54:56;0.90;99.90
23100;DHT22;53791;50.696;4.396;2022-12-18T13:57:35;1.00;99.90
23100;DHT22;53791;50.696;4.396;2022-12-18T14:00:27;1.00;99.90
23100;DHT22;53791;50.696;4.396;2022-12-18T14:02:59;0.90;99.90
23100;DHT22;53791;50.696;4.396;2022-12-18T14:05:29;0.90;99.90
23100;DHT22;53791;50.696;4.396;2022-12-18T14:08:03;0.90;99.90
23100;DHT22;53791;50.696;4.396;2022-12-18T14:10:30;0.90;99.90
23100;DHT22;53791;50.696;4.396;2022-12-18T14:13:06;1.00;99.90
23100;DHT22;53791;50.696;4.396;2022-12-18T14:15:39;1.00;99.90
23100;DHT22;53791;50.696;4.396;2022-12-18T14:20:41;1.10;99.90
23100;DHT22;53791;50.696;4.396;2022-12-18T14:23:36;1.10;99.90
23100;DHT22;53791;50.696;4.396;2022-12-18T14:28:53;1.10;99.90
23100;DHT22;53791;50.696;4.396;2022-12-18T14:31:25;1.20;99.90
23100;DHT22;53791;50.696;4.396;2022-12-18T14:33:58;1.10;99.90
23100;DHT22;53791;50.696;4.396;2022-12-18T14:36:27;1.20;99.90
23100;DHT22;53791;50.696;4.396;2022-12-18T14:38:58;1.10;99.90
23100;DHT22;53791;50.696;4.396;2022-12-18T14:41:26;1.10;99.90
23100;DHT22;53791;50.696;4.396;2022-12-18T14:43:55;1.10;99.90
23100;DHT22;53791;50.696;4.396;2022-12-18T14:46:45;1.10;99.90
23100;DHT22;53791;50.696;4.396;2022-12-18T14:51:54;1.10;99.90
23100;DHT22;53791;50.696;4.396;2022-12-18T14:54:20;1.10;99.90
23100;DHT22;53791;50.696;4.396;2022-12-18T14:57:06;1.10;99.90
23100;DHT22;53791;50.696;4.396;2022-12-18T14:59:33;1.10;99.90
23100;DHT22;53791;50.696;4.396;2022-12-18T15:05:00;1.10;99.90
23100;DHT22;53791;50.696;4.396;2022-12-18T15:07:40;1.10;99.90
23100;DHT22;53791;50.696;4.396;2022-12-18T15:10:14;1.10;99.90
23100;DHT22;53791;50.696;4.396;2022-12-18T15:12:49;1.10;99.90
23100;DHT22;53791;50.696;4.396;2022-12-18T15:18:13;1.10;99.90
23100;DHT22;53791;50.696;4.396;2022-12-18T15:20:44;1.10;99.90
23100;DHT22;53791;50.696;4.396;2022-12-18T15:23:21;1.20;99.90
23100;DHT22;53791;50.696;4.396;2022-12-18T15:26:02;1.10;99.90
23100;DHT22;53791;50.696;4.396;2022-12-18T15:28:31;1.00;99.90
23100;DHT22;53791;50.696;4.396;2022-12-18T15:31:00;1.00;99.90
23100;DHT22;53791;50.696;4.396;2022-12-18T15:33:35;1.00;99.90
23100;DHT22;53791;50.696;4.396;2022-12-18T15:36:05;1.00;99.90
23100;DHT22;53791;50.696;4.396;2022-12-18T15:38:33;0.90;99.90
23100;DHT22;53791;50.696;4.396;2022-12-18T15:41:01;0.90;99.90
23100;DHT22;53791;50.696;4.396;2022-12-18T15:43:29;0.80;99.90
23100;DHT22;53791;50.696;4.396;2022-12-18T15:46:05;0.80;99.90
23100;DHT22;53791;50.696;4.396;2022-12-18T15:48:35;0.80;99.90
23100;DHT22;53791;50.696;4.396;2022-12-18T15:51:05;0.80;99.90
23100;DHT22;53791;50.696;4.396;2022-12-18T15:53:34;0.80;99.90
23100;DHT22;53791;50.696;4.396;2022-12-18T15:56:01;0.80;99.90
23100;DHT22;53791;50.696;4.396;2022-12-18T15:58:47;0.80;99.90
23100;DHT22;53791;50.696;4.396;2022-12-18T16:01:15;0.80;99.90
23100;DHT22;53791;50.696;4.396;2022-12-18T16:03:43;0.80;99.90
23100;DHT22;53791;50.696;4.396;2022-12-18T16:06:10;0.90;99.90
23100;DHT22;53791;50.696;4.396;2022-12-18T16:08:38;0.90;99.90
23100;DHT22;53791;50.696;4.396;2022-12-18T16:11:05;0.90;99.90
23100;DHT22;53791;50.696;4.396;2022-12-18T16:13:35;1.00;99.90
23100;DHT22;53791;50.696;4.396;2022-12-18T16:16:02;1.00;99.90
23100;DHT22;53791;50.696;4.396;2022-12-18T16:18:30;0.90;99.90
23100;DHT22;53791;50.696;4.396;2022-12-18T16:20:58;0.90;99.90
23100;DHT22;53791;50.696;4.396;2022-12-18T16:23:26;0.90;99.90
23100;DHT22;53791;50.696;4.396;2022-12-18T16:25:53;0.90;99.90
23100;DHT22;53791;50.696;4.396;2022-12-18T16:28:21;0.90;99.90
23100;DHT22;53791;50.696;4.396;2022-12-18T16:30:49;0.90;99.90
23100;DHT22;53791;50.696;4.396;2022-12-18T16:33:16;0.90;99.90
23100;DHT22;53791;50.696;4.396;2022-12-18T16:35:50;1.00;99.90
23100;DHT22;53791;50.696;4.396;2022-12-18T16:38:14;1.00;99.90
23100;DHT22;53791;50.696;4.396;2022-12-18T16:40:42;1.00;99.90
23100;DHT22;53791;50.696;4.396;2022-12-18T16:43:11;1.00;99.90
23100;DHT22;53791;50.696;4.396;2022-12-18T16:45:38;1.10;99.90
23100;DHT22;53791;50.696;4.396;2022-12-18T16:48:06;1.10;99.90
23100;DHT22;53791;50.696;4.396;2022-12-18T16:50:33;1.10;99.90
23100;DHT22;53791;50.696;4.396;2022-12-18T16:53:01;1.10;99.90
23100;DHT22;53791;50.696;4.396;2022-12-18T16:55:29;1.10;99.90
23100;DHT22;53791;50.696;4.396;2022-12-18T16:57:56;1.00;99.90
23100;DHT22;53791;50.696;4.396;2022-12-18T17:00:24;1.00;99.90
23100;DHT22;53791;50.696;4.396;2022-12-18T17:02:51;1.00;99.90
23100;DHT22;53791;50.696;4.396;2022-12-18T17:05:21;1.00;99.90
23100;DHT22;53791;50.696;4.396;2022-12-18T17:07:48;1.00;99.90
23100;DHT22;53791;50.696;4.396;2022-12-18T17:10:16;1.10;99.90
23100;DHT22;53791;50.696;4.396;2022-12-18T17:12:43;1.10;99.90
23100;DHT22;53791;50.696;4.396;2022-12-18T17:15:11;1.10;99.90
23100;DHT22;53791;50.696;4.396;2022-12-18T17:17:38;1.10;99.90
23100;DHT22;53791;50.696;4.396;2022-12-18T17:20:06;1.10;99.90